Accueil
METAR-TAF:

METAR-TAF

Aéroports :

Chengdu, Chine

Aéroport international de Chengdu-Shuangliu

latitude: 30-40N, longitude: 104-01E, altitude: 508 m

Observation

Le bulletin a été fait il y a 1 heure et 8 minutes, à 23:00 UTC
Vent calme
Température 9°C
Humidité 71%
Pression 1030 hPa
Visibilité 10 km ou plus
Nuages épars à une hauteur de 5000 ft

METAR: ZUUU 222300Z 00000MPS 9999 SCT050 09/04 Q1030 NOSIG

Heure: 08:08 (00:08 UTC)

Prévision

Le bulletin a été fait il y a 3 heures et 58 minutes, à 20:10 UTC
Prévision valable du 23 à 00 UTC au 23 à 24 UTC
Vent 6 kt de nord
Visibilité: 5000 m
Nuages épars à une hauteur de 5000 ft
brume

TAF: ZUUU 222010Z 2300/2324 36003MPS 5000 BR SCT050 TX14/2307Z TN08/2323Z

Observations et prévisions météorologiques de plus de 4000 aéroports (messages METAR et TAF).

Les stations disponibles sont représentées par des disques jaunes et rouges sur la carte.

Passer la souris dessus pour voir le nom de la station.

Cliquer dessus pour voir les observations et prévisions météorologiques.

Pour changer de carte: cliquez sur les boutons verts avec une croix noire pour zoomer, sur le bouton vert avec un tiret pour effectuer un zoom arrière, ou sur les flèches vertes pour les cartes adjacentes.


METAR-TAF: